ΕΜΥ, Εθνική Μετεωρολογική Υπηρεσία - Δελτία Καιρού, Προγνώσεις

ΑΕΡΟΝΑΥΤΙΛΙΑ

GREEK AIRPORTS CODES

LGNX 270650Z 00000KT 9999 SCT020 13/08 Q1006 RMK SCT080=

EUROPEAN AIRPORTS CODES

LFPO 270700Z 02013KT 9999 FEW024 BKN036 05/01 Q1023 NOSIG=